News.

Patrouille Sparflex - figure aérienne - Fly and Fun
Réserver un vol ?

Vous avez envie de vivre un moment unique ? Réserver un vol à sensation ou un vol d’initiation pour profiter d’un moment inoubliable a bord d’un L39 Albatros !

Patrouille Sparflex - figure aérienne - Fly and Fun
Nouveau site internet !

Bienvenue sur notre nouveau site internet !
Vous pouvez désormais commander votre vol à sensation ou d’initiation directement en ligne !

Social Wall.

Suivez-nous sur les réseaux sociaux comme Facebook et Instagram pour découvrir des actualités inédites !

Instagram.
METAR :

LFQA 190430Z AUTO 17007KT 9999 -RA FEW017/// BKN064/// OVC080/// ///TCU 12/11 Q1005


vue en direct sur l'aérodrome
mentions légales politique de confidentialité
Cochet Concept
cx